createdAt,value
2022-08-03T00:00:37.326Z,4.03
2022-08-03T00:03:06.261Z,4.22
2022-08-03T00:05:34.771Z,4.13
2022-08-03T00:08:03.257Z,4.10
2022-08-03T00:10:34.348Z,4.03
2022-08-03T00:13:02.921Z,3.80
2022-08-03T00:15:31.743Z,3.78
2022-08-03T00:18:00.243Z,4.13
2022-08-03T00:20:28.775Z,3.60
2022-08-03T00:22:57.387Z,3.90
2022-08-03T00:25:25.979Z,3.90
2022-08-03T00:27:56.096Z,3.80
2022-08-03T00:30:26.903Z,3.80
2022-08-03T00:32:59.706Z,4.00
2022-08-03T00:35:49.240Z,4.30
2022-08-03T00:38:17.468Z,3.95
2022-08-03T00:40:46.001Z,4.10
2022-08-03T00:43:15.883Z,4.38
2022-08-03T00:45:44.767Z,3.90
2022-08-03T00:48:29.422Z,4.40
2022-08-03T00:51:02.458Z,4.15
2022-08-03T00:53:31.239Z,4.22
2022-08-03T00:55:59.985Z,4.25
2022-08-03T00:58:30.188Z,4.30
2022-08-03T01:00:58.992Z,4.15
2022-08-03T01:03:27.538Z,4.18
2022-08-03T01:05:59.871Z,4.15
2022-08-03T01:08:33.989Z,4.45
2022-08-03T01:11:06.465Z,4.30
2022-08-03T01:14:01.759Z,4.13
2022-08-03T01:16:36.856Z,4.32
2022-08-03T01:19:10.801Z,4.55
2022-08-03T01:21:42.519Z,4.20
2022-08-03T01:24:17.179Z,4.28
2022-08-03T01:27:05.434Z,4.32
2022-08-03T01:29:52.646Z,4.72
2022-08-03T01:33:00.185Z,4.07
2022-08-03T01:35:13.225Z,3.65
2022-08-03T01:37:44.725Z,4.28
2022-08-03T01:40:14.757Z,4.10
2022-08-03T01:42:43.670Z,4.13
2022-08-03T01:45:14.645Z,4.13
2022-08-03T01:47:44.348Z,4.05
2022-08-03T01:50:14.167Z,4.18
2022-08-03T01:52:44.187Z,4.25
2022-08-03T01:55:14.248Z,4.30
2022-08-03T01:58:05.741Z,4.05
2022-08-03T02:00:34.755Z,3.72
2022-08-03T02:03:04.417Z,4.15
2022-08-03T02:05:33.601Z,3.88
2022-08-03T02:08:02.999Z,3.85
2022-08-03T02:10:35.489Z,4.05
2022-08-03T02:13:07.301Z,3.78
2022-08-03T02:15:38.029Z,4.03
2022-08-03T02:18:08.260Z,4.10
2022-08-03T02:20:38.960Z,4.00
2022-08-03T02:23:07.759Z,3.70
2022-08-03T02:25:37.441Z,3.83
2022-08-03T02:28:10.167Z,3.95
2022-08-03T02:30:40.975Z,4.25
2022-08-03T02:33:12.593Z,4.18
2022-08-03T02:35:41.753Z,3.60
2022-08-03T02:38:12.178Z,3.83
2022-08-03T02:40:41.485Z,4.25
2022-08-03T02:43:11.468Z,3.80
2022-08-03T02:45:45.695Z,4.00
2022-08-03T02:48:17.939Z,4.07
2022-08-03T02:50:47.020Z,4.03
2022-08-03T02:53:16.062Z,3.95
2022-08-03T02:55:45.817Z,3.80
2022-08-03T02:58:15.229Z,3.83
2022-08-03T03:00:46.235Z,3.83
2022-08-03T03:03:15.223Z,4.10
2022-08-03T03:05:55.240Z,4.07
2022-08-03T03:08:28.938Z,3.67
2022-08-03T03:10:58.218Z,4.05
2022-08-03T03:13:27.216Z,3.70
2022-08-03T03:15:58.605Z,4.13
2022-08-03T03:18:27.695Z,3.90
2022-08-03T03:20:57.219Z,4.13
2022-08-03T03:23:26.774Z,3.80
2022-08-03T03:25:56.075Z,3.63
2022-08-03T03:28:25.342Z,4.05
2022-08-03T03:30:53.856Z,3.65
2022-08-03T03:33:23.729Z,4.18
2022-08-03T03:35:53.085Z,4.07
2022-08-03T03:38:21.992Z,4.07
2022-08-03T03:40:50.734Z,3.80
2022-08-03T03:43:19.971Z,3.92
2022-08-03T03:45:49.807Z,3.97
2022-08-03T03:48:18.305Z,4.03
2022-08-03T03:50:48.596Z,4.18
2022-08-03T03:53:17.280Z,4.10
2022-08-03T03:56:01.536Z,3.75
2022-08-03T03:58:31.643Z,3.95
2022-08-03T04:01:00.237Z,4.25
2022-08-03T04:03:28.757Z,4.10
2022-08-03T04:06:16.616Z,3.95
2022-08-03T04:09:14.100Z,3.88
2022-08-03T04:11:45.096Z,4.45
2022-08-03T04:14:14.985Z,4.05
2022-08-03T04:16:45.273Z,3.90
2022-08-03T04:19:21.053Z,4.40
2022-08-03T04:21:57.214Z,4.18
2022-08-03T04:24:27.645Z,4.18
2022-08-03T04:26:57.083Z,4.07
2022-08-03T04:29:26.425Z,3.90
2022-08-03T04:31:56.535Z,4.43
2022-08-03T04:34:25.060Z,4.20
2022-08-03T04:36:57.093Z,4.20
2022-08-03T04:39:26.720Z,4.15
2022-08-03T04:42:07.569Z,4.13
2022-08-03T04:44:38.875Z,5.25
2022-08-03T04:47:07.430Z,5.03
2022-08-03T04:49:37.831Z,4.63
2022-08-03T04:52:10.119Z,4.32
2022-08-03T04:54:41.982Z,4.18
2022-08-03T04:57:10.488Z,3.97
2022-08-03T04:59:59.589Z,4.20
2022-08-03T05:02:30.424Z,4.22
2022-08-03T05:04:58.901Z,4.18
2022-08-03T05:07:35.915Z,4.22
2022-08-03T05:10:05.562Z,3.80
2022-08-03T05:12:43.752Z,4.28
2022-08-03T05:15:12.653Z,4.10
2022-08-03T05:17:41.602Z,4.07
2022-08-03T05:20:10.963Z,4.10
2022-08-03T05:22:41.022Z,3.72
2022-08-03T05:25:09.788Z,3.65
2022-08-03T05:27:46.086Z,3.80
2022-08-03T05:30:29.642Z,4.28
2022-08-03T05:33:02.270Z,3.95
2022-08-03T05:36:02.210Z,3.80
2022-08-03T05:38:24.108Z,3.47
2022-08-03T05:41:21.658Z,3.67
2022-08-03T05:43:46.230Z,4.10
2022-08-03T05:46:14.713Z,3.40
2022-08-03T05:48:43.267Z,4.15
2022-08-03T05:51:12.438Z,3.67
2022-08-03T05:53:42.773Z,3.95
2022-08-03T05:56:14.611Z,3.72
2022-08-03T05:58:44.992Z,3.70
2022-08-03T06:01:13.851Z,3.58
2022-08-03T06:03:42.391Z,3.70
2022-08-03T06:06:11.632Z,3.30
2022-08-03T06:08:40.346Z,3.45
2022-08-03T06:11:10.546Z,3.53
2022-08-03T06:13:39.063Z,3.50
2022-08-03T06:16:07.783Z,3.67
2022-08-03T06:18:36.760Z,3.83
2022-08-03T06:21:14.217Z,3.78
2022-08-03T06:23:53.947Z,3.97
2022-08-03T06:26:29.183Z,3.78
2022-08-03T06:28:57.761Z,3.35
2022-08-03T06:31:32.721Z,3.65
2022-08-03T06:34:32.155Z,3.45
2022-08-03T06:36:52.631Z,3.55
2022-08-03T06:39:23.391Z,4.00
2022-08-03T06:41:54.681Z,4.10
2022-08-03T06:44:22.987Z,4.07
2022-08-03T06:46:51.834Z,4.18
2022-08-03T06:49:20.538Z,3.50
2022-08-03T06:52:37.069Z,3.25
2022-08-03T06:54:39.162Z,3.65
2022-08-03T06:57:11.651Z,3.28
2022-08-03T07:00:09.607Z,3.35
2022-08-03T07:02:28.662Z,3.30
2022-08-03T07:04:57.314Z,3.70
2022-08-03T07:07:26.036Z,3.47
2022-08-03T07:09:57.354Z,3.40
2022-08-03T07:12:30.496Z,3.45
2022-08-03T07:15:01.739Z,3.63
2022-08-03T07:17:31.965Z,3.35
2022-08-03T07:20:01.403Z,3.65
2022-08-03T07:22:29.731Z,3.30
2022-08-03T07:24:58.134Z,3.60
2022-08-03T07:27:28.761Z,3.65
2022-08-03T07:29:57.525Z,3.95
2022-08-03T07:32:26.115Z,3.67
2022-08-03T07:34:59.919Z,3.50
2022-08-03T07:37:29.327Z,3.35
2022-08-03T07:39:57.704Z,3.38
2022-08-03T07:42:27.517Z,3.22
2022-08-03T07:44:56.038Z,3.60
2022-08-03T07:47:26.059Z,3.42
2022-08-03T07:50:05.336Z,3.65
2022-08-03T07:52:53.725Z,4.00
2022-08-03T07:55:23.954Z,3.40
2022-08-03T07:58:03.489Z,3.53
2022-08-03T08:00:32.187Z,3.40
2022-08-03T08:03:00.517Z,3.78
2022-08-03T08:05:29.572Z,3.42
2022-08-03T08:07:57.919Z,3.40
2022-08-03T08:10:26.137Z,3.70
2022-08-03T08:12:55.025Z,3.40
2022-08-03T08:15:24.819Z,4.18
2022-08-03T08:17:55.291Z,3.70
2022-08-03T08:20:28.068Z,3.30
2022-08-03T08:23:01.257Z,3.33
2022-08-03T08:25:31.888Z,3.35
2022-08-03T08:28:22.452Z,3.20
2022-08-03T08:30:54.308Z,3.63
2022-08-03T08:33:24.045Z,3.40
2022-08-03T08:35:54.536Z,3.30
2022-08-03T08:38:23.285Z,3.30
2022-08-03T08:40:52.483Z,3.78
2022-08-03T08:43:20.696Z,3.60
2022-08-03T08:45:51.721Z,3.80
2022-08-03T08:48:25.664Z,4.03
2022-08-03T08:50:55.348Z,3.83
2022-08-03T08:53:27.213Z,4.35
2022-08-03T08:56:00.648Z,3.40
2022-08-03T08:58:32.125Z,3.47
2022-08-03T09:01:00.653Z,3.70
2022-08-03T09:03:31.031Z,3.90
2022-08-03T09:06:02.277Z,3.20
2022-08-03T09:08:32.998Z,4.57
2022-08-03T09:11:01.314Z,3.53
2022-08-03T09:13:30.671Z,3.47
2022-08-03T09:16:12.111Z,4.03
2022-08-03T09:18:42.542Z,4.07
2022-08-03T09:21:32.177Z,4.10
2022-08-03T09:24:05.710Z,4.50
2022-08-03T09:26:38.122Z,5.65
2022-08-03T09:29:14.040Z,4.32
2022-08-03T09:31:47.938Z,7.57
2022-08-03T09:34:19.646Z,4.80
2022-08-03T09:36:49.522Z,5.05
2022-08-03T09:39:19.200Z,9.40
2022-08-03T09:41:49.601Z,7.20
2022-08-03T09:44:24.939Z,6.63
2022-08-03T09:46:56.933Z,8.93
2022-08-03T09:49:26.897Z,6.88
2022-08-03T09:52:32.823Z,5.40
2022-08-03T09:54:44.923Z,9.65
2022-08-03T09:57:24.006Z,7.38
2022-08-03T10:00:03.081Z,5.78
2022-08-03T10:02:34.801Z,6.82
2022-08-03T10:05:06.024Z,14.73
2022-08-03T10:07:45.876Z,13.20
2022-08-03T10:10:29.906Z,6.68
2022-08-03T10:12:59.995Z,5.18
2022-08-03T10:16:21.815Z,11.85
2022-08-03T10:18:17.302Z,9.57
2022-08-03T10:20:50.993Z,5.85
2022-08-03T10:23:20.908Z,5.22
2022-08-03T10:25:53.955Z,18.48
2022-08-03T10:28:23.384Z,8.52
2022-08-03T10:30:52.759Z,4.85
2022-08-03T10:33:51.668Z,12.45
2022-08-03T10:36:15.227Z,9.10
2022-08-03T10:38:47.245Z,4.82
2022-08-03T10:41:17.936Z,4.82
2022-08-03T10:43:51.228Z,15.82
2022-08-03T10:46:22.947Z,7.25
2022-08-03T10:48:52.880Z,4.13
2022-08-03T10:51:22.859Z,7.68
2022-08-03T10:53:55.494Z,10.10
2022-08-03T10:57:13.693Z,4.65
2022-08-03T11:00:06.314Z,4.55
2022-08-03T11:03:16.931Z,5.40
2022-08-03T11:05:46.645Z,14.02
2022-08-03T11:08:34.844Z,5.90
2022-08-03T11:11:25.107Z,4.40
2022-08-03T11:14:00.786Z,12.65
2022-08-03T11:16:30.042Z,6.13
2022-08-03T11:19:00.410Z,4.22
2022-08-03T11:21:57.788Z,4.22
2022-08-03T11:24:59.520Z,4.60
2022-08-03T11:27:31.338Z,4.82
2022-08-03T11:30:05.390Z,3.50
2022-08-03T11:32:53.280Z,3.10
2022-08-03T11:35:23.623Z,2.90
2022-08-03T11:38:11.646Z,3.25
2022-08-03T11:40:44.020Z,3.42
2022-08-03T11:43:45.698Z,6.53
2022-08-03T11:46:28.137Z,8.23
2022-08-03T11:49:09.493Z,3.90
2022-08-03T11:51:40.437Z,10.68
2022-08-03T11:54:09.317Z,11.02
2022-08-03T11:56:48.537Z,4.65
2022-08-03T11:59:22.321Z,4.47
2022-08-03T12:01:51.467Z,18.25
2022-08-03T12:04:19.862Z,5.95
2022-08-03T12:07:00.671Z,3.70
2022-08-03T12:09:28.936Z,5.85
2022-08-03T12:12:00.425Z,16.58
2022-08-03T12:14:48.577Z,8.10
2022-08-03T12:17:19.970Z,4.10
2022-08-03T12:19:48.706Z,5.03
2022-08-03T12:22:17.877Z,17.98
2022-08-03T12:24:47.028Z,6.07
2022-08-03T12:27:25.435Z,3.63
2022-08-03T12:29:58.507Z,12.75
2022-08-03T12:32:28.336Z,9.43
2022-08-03T12:35:00.842Z,7.68
2022-08-03T12:37:30.601Z,6.28
2022-08-03T12:40:07.829Z,19.67
2022-08-03T12:42:40.282Z,13.20
2022-08-03T12:45:23.800Z,6.75
2022-08-03T12:47:56.237Z,5.35
2022-08-03T12:50:29.363Z,23.20
2022-08-03T12:52:59.232Z,7.38
2022-08-03T12:55:56.971Z,16.35
2022-08-03T12:58:33.785Z,10.45
2022-08-03T13:01:05.166Z,4.80
2022-08-03T13:03:43.600Z,15.45
2022-08-03T13:06:15.282Z,10.60
2022-08-03T13:08:44.444Z,4.75
2022-08-03T13:11:53.435Z,4.30
2022-08-03T13:14:19.453Z,6.60
2022-08-03T13:16:50.219Z,7.38
2022-08-03T13:19:18.749Z,7.07
2022-08-03T13:21:53.863Z,15.88
2022-08-03T13:24:34.451Z,5.68
2022-08-03T13:28:02.538Z,6.60
2022-08-03T13:29:54.016Z,20.15
2022-08-03T13:32:24.006Z,6.53
2022-08-03T13:34:52.417Z,4.60
2022-08-03T13:37:20.932Z,6.55
2022-08-03T13:39:59.604Z,16.15
2022-08-03T13:42:30.724Z,6.18
2022-08-03T13:44:59.575Z,5.40
2022-08-03T13:47:29.258Z,25.17
2022-08-03T13:50:01.032Z,9.82
2022-08-03T13:52:31.964Z,4.65
2022-08-03T13:55:00.770Z,5.05
2022-08-03T13:58:06.701Z,6.93
2022-08-03T14:00:27.077Z,3.65
2022-08-03T14:03:14.935Z,3.67
2022-08-03T14:05:44.750Z,3.22
2022-08-03T14:08:13.535Z,2.72
2022-08-03T14:10:43.573Z,3.15
2022-08-03T14:13:17.536Z,3.10
2022-08-03T14:15:49.796Z,2.85
2022-08-03T14:18:27.961Z,3.40
2022-08-03T14:21:03.379Z,3.78
2022-08-03T14:23:34.188Z,3.38
2022-08-03T14:26:02.383Z,2.72
2022-08-03T14:28:30.924Z,3.40
2022-08-03T14:30:59.227Z,3.45
2022-08-03T14:33:29.438Z,2.70
2022-08-03T14:35:57.936Z,3.00
2022-08-03T14:38:26.201Z,3.17
2022-08-03T14:40:54.387Z,3.67
2022-08-03T14:43:22.766Z,22.00
2022-08-03T14:45:52.522Z,9.70
2022-08-03T14:50:32.571Z,4.13
2022-08-03T14:51:11.668Z,4.75
2022-08-03T14:53:39.947Z,4.70
2022-08-03T14:56:10.703Z,3.60
2022-08-03T14:58:39.397Z,4.30
2022-08-03T15:02:03.057Z,3.72
2022-08-03T15:03:56.875Z,3.10
2022-08-03T15:06:28.337Z,10.45
2022-08-03T15:09:22.969Z,18.05
2022-08-03T15:11:44.952Z,4.95
2022-08-03T15:14:14.710Z,3.10
2022-08-03T15:16:43.731Z,3.22
2022-08-03T15:20:01.244Z,5.50
2022-08-03T15:22:01.850Z,3.33
2022-08-03T15:24:30.868Z,2.75
2022-08-03T15:26:59.355Z,2.70
2022-08-03T15:30:04.875Z,3.00
2022-08-03T15:32:16.773Z,2.80
2022-08-03T15:34:50.486Z,3.10
2022-08-03T15:37:20.919Z,3.22
2022-08-03T15:39:59.126Z,2.97
2022-08-03T15:42:29.370Z,3.20
2022-08-03T15:44:57.639Z,3.10
2022-08-03T15:47:26.209Z,2.80
2022-08-03T15:49:54.634Z,3.13
2022-08-03T15:52:24.356Z,2.88
2022-08-03T15:54:52.559Z,2.90
2022-08-03T15:57:22.024Z,3.22
2022-08-03T15:59:50.864Z,3.20
2022-08-03T16:02:19.096Z,3.38
2022-08-03T16:04:47.387Z,2.80
2022-08-03T16:07:16.356Z,11.98
2022-08-03T16:09:45.955Z,7.47
2022-08-03T16:12:16.217Z,3.90
2022-08-03T16:14:53.839Z,3.10
2022-08-03T16:17:24.383Z,2.78
2022-08-03T16:19:54.910Z,2.80
2022-08-03T16:22:24.024Z,3.00
2022-08-03T16:24:54.673Z,2.60
2022-08-03T16:27:37.464Z,3.58
2022-08-03T16:30:15.394Z,3.17
2022-08-03T16:32:44.093Z,3.05
2022-08-03T16:35:19.875Z,3.08
2022-08-03T16:37:51.753Z,2.55
2022-08-03T16:40:27.035Z,3.08
2022-08-03T16:42:55.509Z,2.78
2022-08-03T16:45:23.822Z,2.75
2022-08-03T16:48:01.679Z,3.28
2022-08-03T16:50:35.516Z,3.10
2022-08-03T16:53:09.111Z,3.22
2022-08-03T16:55:48.922Z,3.22
2022-08-03T16:58:24.305Z,3.15
2022-08-03T17:01:21.177Z,7.00
2022-08-03T17:04:01.576Z,12.05
2022-08-03T17:06:34.286Z,13.57
2022-08-03T17:09:03.476Z,14.02
2022-08-03T17:11:33.681Z,16.25
2022-08-03T17:14:06.468Z,16.40
2022-08-03T17:16:38.321Z,15.20
2022-08-03T17:19:08.507Z,14.45
2022-08-03T17:21:40.333Z,13.70
2022-08-03T17:24:19.722Z,14.80
2022-08-03T17:26:52.745Z,14.68
2022-08-03T17:29:30.076Z,15.82
2022-08-03T17:31:58.543Z,16.63
2022-08-03T17:34:29.777Z,15.40
2022-08-03T17:37:06.094Z,15.90
2022-08-03T17:39:58.268Z,16.50
2022-08-03T17:42:30.068Z,15.68
2022-08-03T17:45:02.191Z,14.45
2022-08-03T17:47:41.172Z,15.05
2022-08-03T17:50:25.177Z,15.63
2022-08-03T17:53:01.117Z,14.68
2022-08-03T17:55:56.225Z,15.07
2022-08-03T17:58:52.773Z,15.45
2022-08-03T18:02:00.833Z,14.45
2022-08-03T18:04:41.253Z,13.65
2022-08-03T18:07:12.685Z,13.75
2022-08-03T18:10:04.238Z,13.50
2022-08-03T18:12:47.832Z,12.95
2022-08-03T18:15:28.686Z,12.82
2022-08-03T18:18:02.199Z,12.52
2022-08-03T18:20:41.056Z,10.75
2022-08-03T18:23:25.344Z,10.13
2022-08-03T18:26:00.726Z,9.23
2022-08-03T18:28:30.406Z,8.77
2022-08-03T18:31:05.577Z,7.43
2022-08-03T18:34:17.325Z,6.97
2022-08-03T18:36:30.165Z,6.18
2022-08-03T18:39:02.407Z,5.90
2022-08-03T18:41:34.587Z,6.75
2022-08-03T18:44:08.945Z,8.32
2022-08-03T18:47:50.901Z,8.35
2022-08-03T18:50:26.344Z,10.32
2022-08-03T18:53:02.891Z,14.13
2022-08-03T18:55:35.486Z,15.98
2022-08-03T18:58:17.663Z,15.60
2022-08-03T19:00:54.755Z,13.82
2022-08-03T19:03:41.551Z,11.95
2022-08-03T19:06:19.918Z,11.00
2022-08-03T19:08:52.479Z,10.60
2022-08-03T19:11:28.293Z,10.30
2022-08-03T19:14:22.120Z,9.52
2022-08-03T19:17:04.506Z,9.85
2022-08-03T19:19:44.411Z,9.00
2022-08-03T19:22:15.958Z,9.85
2022-08-03T19:24:47.790Z,10.02
2022-08-03T19:27:16.584Z,9.65
2022-08-03T19:29:58.962Z,8.65
2022-08-03T19:32:30.049Z,8.23
2022-08-03T19:35:03.792Z,7.95
2022-08-03T19:37:39.805Z,8.13
2022-08-03T19:40:10.205Z,7.43
2022-08-03T19:42:45.069Z,7.28
2022-08-03T19:45:17.580Z,7.20
2022-08-03T19:47:49.061Z,6.70
2022-08-03T19:50:22.030Z,6.72
2022-08-03T19:52:55.382Z,6.35
2022-08-03T19:55:24.327Z,6.35
2022-08-03T19:57:57.097Z,6.40
2022-08-03T20:00:26.254Z,6.57
2022-08-03T20:02:55.743Z,6.40
2022-08-03T20:05:25.946Z,6.47
2022-08-03T20:07:55.028Z,6.10
2022-08-03T20:10:24.576Z,5.93
2022-08-03T20:12:54.311Z,5.65
2022-08-03T20:15:31.357Z,5.70
2022-08-03T20:18:01.125Z,5.95
2022-08-03T20:20:33.197Z,6.70
2022-08-03T20:23:07.781Z,6.28
2022-08-03T20:25:48.838Z,6.63
2022-08-03T20:28:30.636Z,6.28
2022-08-03T20:30:59.965Z,6.45
2022-08-03T20:33:46.593Z,6.72
2022-08-03T20:36:18.709Z,5.57
2022-08-03T20:38:48.237Z,5.50
2022-08-03T20:41:17.181Z,5.18
2022-08-03T20:43:45.982Z,4.85
2022-08-03T20:46:31.684Z,5.10
2022-08-03T20:49:06.241Z,4.47
2022-08-03T20:51:50.627Z,4.88
2022-08-03T20:54:31.193Z,4.90
2022-08-03T20:57:03.691Z,4.85
2022-08-03T20:59:50.598Z,5.00
2022-08-03T21:02:28.865Z,4.90
2022-08-03T21:04:57.948Z,4.60
2022-08-03T21:08:05.660Z,4.97
2022-08-03T21:10:19.107Z,4.22
2022-08-03T21:12:51.913Z,5.40
2022-08-03T21:16:11.483Z,4.75
2022-08-03T21:18:15.838Z,4.75
2022-08-03T21:20:47.490Z,4.65
2022-08-03T21:23:37.088Z,4.00
2022-08-03T21:26:10.638Z,4.40
2022-08-03T21:28:40.264Z,4.55
2022-08-03T21:31:09.580Z,4.85
2022-08-03T21:33:38.402Z,4.32
2022-08-03T21:36:09.385Z,4.13
2022-08-03T21:38:39.402Z,4.50
2022-08-03T21:41:08.839Z,4.28
2022-08-03T21:43:37.484Z,3.95
2022-08-03T21:46:06.695Z,4.00
2022-08-03T21:48:38.376Z,4.03
2022-08-03T21:51:09.236Z,4.10
2022-08-03T21:54:00.329Z,4.22
2022-08-03T21:56:29.684Z,3.55
2022-08-03T21:59:04.581Z,4.15
2022-08-03T22:01:35.458Z,4.10
2022-08-03T22:04:07.197Z,4.47
2022-08-03T22:06:39.981Z,3.83
2022-08-03T22:09:10.193Z,4.50
2022-08-03T22:11:39.216Z,4.10
2022-08-03T22:14:07.991Z,4.53
2022-08-03T22:16:36.804Z,4.45
2022-08-03T22:19:05.176Z,4.18
2022-08-03T22:21:36.578Z,4.30
2022-08-03T22:24:07.012Z,5.20
2022-08-03T22:26:37.684Z,4.50
2022-08-03T22:29:09.007Z,4.30
2022-08-03T22:31:58.381Z,3.72
2022-08-03T22:34:28.008Z,4.28
2022-08-03T22:37:00.122Z,4.43
2022-08-03T22:39:29.737Z,4.35
2022-08-03T22:42:00.208Z,3.72
2022-08-03T22:44:28.874Z,4.05
2022-08-03T22:46:57.868Z,4.05
2022-08-03T22:49:26.414Z,3.90
2022-08-03T22:51:55.411Z,4.40
2022-08-03T22:54:24.562Z,3.78
2022-08-03T22:56:53.521Z,3.80
2022-08-03T22:59:38.941Z,3.85
2022-08-03T23:02:20.278Z,3.72
2022-08-03T23:04:51.903Z,3.67
2022-08-03T23:07:22.960Z,3.50
2022-08-03T23:09:52.171Z,4.50
2022-08-03T23:12:21.324Z,3.60
2022-08-03T23:14:54.364Z,3.72
2022-08-03T23:17:24.384Z,3.60
2022-08-03T23:19:53.787Z,3.42
2022-08-03T23:22:30.233Z,3.38
2022-08-03T23:25:01.421Z,3.38
2022-08-03T23:27:29.954Z,3.53
2022-08-03T23:30:00.241Z,3.45
2022-08-03T23:32:29.972Z,3.38
2022-08-03T23:35:17.661Z,3.50
2022-08-03T23:38:04.517Z,3.88
2022-08-03T23:40:35.463Z,3.63
2022-08-03T23:43:04.415Z,3.40
2022-08-03T23:45:36.867Z,3.72
2022-08-03T23:48:05.730Z,3.60
2022-08-03T23:50:37.359Z,3.30
2022-08-03T23:53:10.571Z,3.22
2022-08-03T23:55:46.311Z,3.28
2022-08-03T23:58:20.790Z,3.50
